sensor_id;sensor_type;location;lat;lon;timestamp;temperature;humidity
14119;DHT22;7138;49.246;9.100;2023-12-20T00:01:27;4.40;99.90
14119;DHT22;7138;49.246;9.100;2023-12-20T00:03:52;4.50;99.90
14119;DHT22;7138;49.246;9.100;2023-12-20T00:06:18;4.40;99.90
14119;DHT22;7138;49.246;9.100;2023-12-20T00:08:44;4.40;99.90
14119;DHT22;7138;49.246;9.100;2023-12-20T00:11:11;4.40;99.90
14119;DHT22;7138;49.246;9.100;2023-12-20T00:13:37;4.40;99.90
14119;DHT22;7138;49.246;9.100;2023-12-20T00:16:03;4.40;99.90
14119;DHT22;7138;49.246;9.100;2023-12-20T00:18:29;4.50;99.90
14119;DHT22;7138;49.246;9.100;2023-12-20T00:20:55;4.50;99.90
14119;DHT22;7138;49.246;9.100;2023-12-20T00:23:21;4.50;99.90
14119;DHT22;7138;49.246;9.100;2023-12-20T00:25:48;4.50;99.90
14119;DHT22;7138;49.246;9.100;2023-12-20T00:28:16;4.50;99.90
14119;DHT22;7138;49.246;9.100;2023-12-20T00:30:41;4.50;99.90
14119;DHT22;7138;49.246;9.100;2023-12-20T00:33:07;4.50;99.90
14119;DHT22;7138;49.246;9.100;2023-12-20T00:35:33;4.50;99.90
14119;DHT22;7138;49.246;9.100;2023-12-20T00:37:59;4.50;99.90
14119;DHT22;7138;49.246;9.100;2023-12-20T00:40:25;4.50;99.90
14119;DHT22;7138;49.246;9.100;2023-12-20T00:42:51;4.60;99.90
14119;DHT22;7138;49.246;9.100;2023-12-20T00:45:18;4.50;99.90
14119;DHT22;7138;49.246;9.100;2023-12-20T00:47:44;4.60;99.90
14119;DHT22;7138;49.246;9.100;2023-12-20T00:50:10;4.60;99.90
14119;DHT22;7138;49.246;9.100;2023-12-20T00:52:36;4.60;99.90
14119;DHT22;7138;49.246;9.100;2023-12-20T00:55:02;4.60;99.90
14119;DHT22;7138;49.246;9.100;2023-12-20T00:57:29;4.60;99.90
14119;DHT22;7138;49.246;9.100;2023-12-20T00:59:55;4.60;99.90
14119;DHT22;7138;49.246;9.100;2023-12-20T01:02:22;4.60;99.90
14119;DHT22;7138;49.246;9.100;2023-12-20T01:04:48;4.60;99.90
14119;DHT22;7138;49.246;9.100;2023-12-20T01:07:13;4.60;99.90
14119;DHT22;7138;49.246;9.100;2023-12-20T01:09:39;4.60;99.90
14119;DHT22;7138;49.246;9.100;2023-12-20T01:12:05;4.60;99.90
14119;DHT22;7138;49.246;9.100;2023-12-20T01:14:31;4.70;99.90
14119;DHT22;7138;49.246;9.100;2023-12-20T01:16:57;4.60;99.90
14119;DHT22;7138;49.246;9.100;2023-12-20T01:19:24;4.60;99.90
14119;DHT22;7138;49.246;9.100;2023-12-20T01:21:50;4.60;99.90
14119;DHT22;7138;49.246;9.100;2023-12-20T01:24:16;4.60;99.90
14119;DHT22;7138;49.246;9.100;2023-12-20T01:26:42;4.60;99.90
14119;DHT22;7138;49.246;9.100;2023-12-20T01:29:08;4.60;99.90
14119;DHT22;7138;49.246;9.100;2023-12-20T01:31:33;4.60;99.90
14119;DHT22;7138;49.246;9.100;2023-12-20T01:33:59;4.60;99.90
14119;DHT22;7138;49.246;9.100;2023-12-20T01:36:26;4.60;99.90
14119;DHT22;7138;49.246;9.100;2023-12-20T01:38:52;4.70;99.90
14119;DHT22;7138;49.246;9.100;2023-12-20T01:41:18;4.70;99.90
14119;DHT22;7138;49.246;9.100;2023-12-20T01:43:44;4.70;99.90
14119;DHT22;7138;49.246;9.100;2023-12-20T01:46:10;4.80;99.90
14119;DHT22;7138;49.246;9.100;2023-12-20T01:48:37;4.80;99.90
14119;DHT22;7138;49.246;9.100;2023-12-20T01:51:04;4.80;99.90
14119;DHT22;7138;49.246;9.100;2023-12-20T01:53:32;4.80;99.90
14119;DHT22;7138;49.246;9.100;2023-12-20T01:55:58;4.80;99.90
14119;DHT22;7138;49.246;9.100;2023-12-20T01:58:25;4.80;99.90
14119;DHT22;7138;49.246;9.100;2023-12-20T02:00:52;4.80;99.90
14119;DHT22;7138;49.246;9.100;2023-12-20T02:03:18;4.80;99.90
14119;DHT22;7138;49.246;9.100;2023-12-20T02:05:45;4.80;99.90
14119;DHT22;7138;49.246;9.100;2023-12-20T02:08:13;4.90;99.90
14119;DHT22;7138;49.246;9.100;2023-12-20T02:10:40;4.80;99.90
14119;DHT22;7138;49.246;9.100;2023-12-20T02:13:07;4.80;99.90
14119;DHT22;7138;49.246;9.100;2023-12-20T02:15:33;4.80;99.90
14119;DHT22;7138;49.246;9.100;2023-12-20T02:17:59;4.80;99.90
14119;DHT22;7138;49.246;9.100;2023-12-20T02:20:25;4.80;99.90
14119;DHT22;7138;49.246;9.100;2023-12-20T02:22:52;4.80;99.90
14119;DHT22;7138;49.246;9.100;2023-12-20T02:25:17;4.80;99.90
14119;DHT22;7138;49.246;9.100;2023-12-20T02:27:43;4.80;99.90
14119;DHT22;7138;49.246;9.100;2023-12-20T02:30:10;4.80;99.90
14119;DHT22;7138;49.246;9.100;2023-12-20T02:32:36;4.80;99.90
14119;DHT22;7138;49.246;9.100;2023-12-20T02:35:02;4.70;99.90
14119;DHT22;7138;49.246;9.100;2023-12-20T02:37:28;4.70;99.90
14119;DHT22;7138;49.246;9.100;2023-12-20T02:39:55;4.70;99.90
14119;DHT22;7138;49.246;9.100;2023-12-20T02:42:20;4.70;99.90
14119;DHT22;7138;49.246;9.100;2023-12-20T02:44:46;4.70;99.90
14119;DHT22;7138;49.246;9.100;2023-12-20T02:47:12;4.70;99.90
14119;DHT22;7138;49.246;9.100;2023-12-20T02:49:38;4.60;99.90
14119;DHT22;7138;49.246;9.100;2023-12-20T02:52:04;4.70;99.90
14119;DHT22;7138;49.246;9.100;2023-12-20T02:54:30;4.70;99.90
14119;DHT22;7138;49.246;9.100;2023-12-20T02:56:57;4.60;99.90
14119;DHT22;7138;49.246;9.100;2023-12-20T02:59:23;4.70;99.90
14119;DHT22;7138;49.246;9.100;2023-12-20T03:01:49;4.70;99.90
14119;DHT22;7138;49.246;9.100;2023-12-20T03:04:15;4.70;99.90
14119;DHT22;7138;49.246;9.100;2023-12-20T03:06:40;4.70;99.90
14119;DHT22;7138;49.246;9.100;2023-12-20T03:09:06;4.70;99.90
14119;DHT22;7138;49.246;9.100;2023-12-20T03:11:32;4.70;99.90
14119;DHT22;7138;49.246;9.100;2023-12-20T03:14:00;4.70;99.90
14119;DHT22;7138;49.246;9.100;2023-12-20T03:16:26;4.70;99.90
14119;DHT22;7138;49.246;9.100;2023-12-20T03:18:51;4.70;99.90
14119;DHT22;7138;49.246;9.100;2023-12-20T03:21:17;4.70;99.90
14119;DHT22;7138;49.246;9.100;2023-12-20T03:23:43;4.70;99.90
14119;DHT22;7138;49.246;9.100;2023-12-20T03:26:09;4.60;99.90
14119;DHT22;7138;49.246;9.100;2023-12-20T03:28:36;4.60;99.90
14119;DHT22;7138;49.246;9.100;2023-12-20T03:31:03;4.70;99.90
14119;DHT22;7138;49.246;9.100;2023-12-20T03:33:29;4.60;99.90
14119;DHT22;7138;49.246;9.100;2023-12-20T03:35:55;4.60;99.90
14119;DHT22;7138;49.246;9.100;2023-12-20T03:38:21;4.60;99.90
14119;DHT22;7138;49.246;9.100;2023-12-20T03:40:49;4.60;99.90
14119;DHT22;7138;49.246;9.100;2023-12-20T03:43:15;4.60;99.90
14119;DHT22;7138;49.246;9.100;2023-12-20T03:45:42;4.60;99.90
14119;DHT22;7138;49.246;9.100;2023-12-20T03:48:09;4.60;99.90
14119;DHT22;7138;49.246;9.100;2023-12-20T03:50:35;4.60;99.90
14119;DHT22;7138;49.246;9.100;2023-12-20T03:53:01;4.60;99.90
14119;DHT22;7138;49.246;9.100;2023-12-20T03:55:27;4.60;99.90
14119;DHT22;7138;49.246;9.100;2023-12-20T03:57:53;4.60;99.90
14119;DHT22;7138;49.246;9.100;2023-12-20T04:00:19;4.60;99.90
14119;DHT22;7138;49.246;9.100;2023-12-20T04:02:45;4.50;99.90
14119;DHT22;7138;49.246;9.100;2023-12-20T04:05:12;4.60;99.90
14119;DHT22;7138;49.246;9.100;2023-12-20T04:07:38;4.60;99.90
14119;DHT22;7138;49.246;9.100;2023-12-20T04:10:05;4.60;99.90
14119;DHT22;7138;49.246;9.100;2023-12-20T04:12:32;4.60;99.90
14119;DHT22;7138;49.246;9.100;2023-12-20T04:14:58;4.60;99.90
14119;DHT22;7138;49.246;9.100;2023-12-20T04:17:23;4.60;99.90
14119;DHT22;7138;49.246;9.100;2023-12-20T04:19:50;4.60;99.90
14119;DHT22;7138;49.246;9.100;2023-12-20T04:22:18;4.60;99.90
14119;DHT22;7138;49.246;9.100;2023-12-20T04:24:44;4.70;99.90
14119;DHT22;7138;49.246;9.100;2023-12-20T04:27:10;4.60;99.90
14119;DHT22;7138;49.246;9.100;2023-12-20T04:29:37;4.60;99.90
14119;DHT22;7138;49.246;9.100;2023-12-20T04:32:03;4.60;99.90
14119;DHT22;7138;49.246;9.100;2023-12-20T04:34:29;4.60;99.90
14119;DHT22;7138;49.246;9.100;2023-12-20T04:36:55;4.60;99.90
14119;DHT22;7138;49.246;9.100;2023-12-20T04:39:22;4.70;99.90
14119;DHT22;7138;49.246;9.100;2023-12-20T04:41:48;4.60;99.90
14119;DHT22;7138;49.246;9.100;2023-12-20T04:44:15;4.60;99.90
14119;DHT22;7138;49.246;9.100;2023-12-20T04:46:41;4.60;99.90
14119;DHT22;7138;49.246;9.100;2023-12-20T04:49:07;4.60;99.90
14119;DHT22;7138;49.246;9.100;2023-12-20T04:51:33;4.60;99.90
14119;DHT22;7138;49.246;9.100;2023-12-20T04:53:59;4.60;99.90
14119;DHT22;7138;49.246;9.100;2023-12-20T04:56:26;4.60;99.90
14119;DHT22;7138;49.246;9.100;2023-12-20T04:58:52;4.60;99.90
14119;DHT22;7138;49.246;9.100;2023-12-20T05:01:18;4.60;99.90
14119;DHT22;7138;49.246;9.100;2023-12-20T05:03:43;4.60;99.90
14119;DHT22;7138;49.246;9.100;2023-12-20T05:06:10;4.60;99.90
14119;DHT22;7138;49.246;9.100;2023-12-20T05:08:36;4.60;99.90
14119;DHT22;7138;49.246;9.100;2023-12-20T05:11:02;4.60;99.90
14119;DHT22;7138;49.246;9.100;2023-12-20T05:13:30;4.60;99.90
14119;DHT22;7138;49.246;9.100;2023-12-20T05:15:55;4.60;99.90
14119;DHT22;7138;49.246;9.100;2023-12-20T05:18:21;4.60;99.90
14119;DHT22;7138;49.246;9.100;2023-12-20T05:20:48;4.60;99.90
14119;DHT22;7138;49.246;9.100;2023-12-20T05:23:15;4.60;99.90
14119;DHT22;7138;49.246;9.100;2023-12-20T05:25:40;4.70;99.90
14119;DHT22;7138;49.246;9.100;2023-12-20T05:28:06;4.70;99.90
14119;DHT22;7138;49.246;9.100;2023-12-20T05:30:33;4.70;99.90
14119;DHT22;7138;49.246;9.100;2023-12-20T05:32:59;4.70;99.90
14119;DHT22;7138;49.246;9.100;2023-12-20T05:35:25;4.70;99.90
14119;DHT22;7138;49.246;9.100;2023-12-20T05:37:51;4.70;99.90
14119;DHT22;7138;49.246;9.100;2023-12-20T05:40:16;4.70;99.90
14119;DHT22;7138;49.246;9.100;2023-12-20T05:42:42;4.70;99.90
14119;DHT22;7138;49.246;9.100;2023-12-20T05:45:09;4.70;99.90
14119;DHT22;7138;49.246;9.100;2023-12-20T05:47:36;4.70;99.90
14119;DHT22;7138;49.246;9.100;2023-12-20T05:50:02;4.80;99.90
14119;DHT22;7138;49.246;9.100;2023-12-20T05:52:29;4.80;99.90
14119;DHT22;7138;49.246;9.100;2023-12-20T05:54:55;4.80;99.90
14119;DHT22;7138;49.246;9.100;2023-12-20T05:57:23;4.80;99.90
14119;DHT22;7138;49.246;9.100;2023-12-20T05:59:49;4.80;99.90
14119;DHT22;7138;49.246;9.100;2023-12-20T06:02:14;4.80;99.90
14119;DHT22;7138;49.246;9.100;2023-12-20T06:04:43;4.80;99.90
14119;DHT22;7138;49.246;9.100;2023-12-20T06:07:11;4.80;99.90
14119;DHT22;7138;49.246;9.100;2023-12-20T06:09:37;4.80;99.90
14119;DHT22;7138;49.246;9.100;2023-12-20T06:12:03;4.80;99.90
14119;DHT22;7138;49.246;9.100;2023-12-20T06:14:30;4.80;99.90
14119;DHT22;7138;49.246;9.100;2023-12-20T06:16:56;4.80;99.90
14119;DHT22;7138;49.246;9.100;2023-12-20T06:19:22;4.80;99.90
14119;DHT22;7138;49.246;9.100;2023-12-20T06:21:49;4.80;99.90
14119;DHT22;7138;49.246;9.100;2023-12-20T06:24:15;4.80;99.90
14119;DHT22;7138;49.246;9.100;2023-12-20T06:26:41;4.80;99.90
14119;DHT22;7138;49.246;9.100;2023-12-20T06:29:06;4.90;99.90
14119;DHT22;7138;49.246;9.100;2023-12-20T06:31:32;4.90;99.90
14119;DHT22;7138;49.246;9.100;2023-12-20T06:33:58;4.90;99.90
14119;DHT22;7138;49.246;9.100;2023-12-20T06:36:25;4.80;99.90
14119;DHT22;7138;49.246;9.100;2023-12-20T06:38:52;4.90;99.90
14119;DHT22;7138;49.246;9.100;2023-12-20T06:41:18;4.80;99.90
14119;DHT22;7138;49.246;9.100;2023-12-20T06:43:44;4.90;99.90
14119;DHT22;7138;49.246;9.100;2023-12-20T06:46:10;4.90;99.90
14119;DHT22;7138;49.246;9.100;2023-12-20T06:48:38;4.90;99.90
14119;DHT22;7138;49.246;9.100;2023-12-20T06:51:05;4.90;99.90
14119;DHT22;7138;49.246;9.100;2023-12-20T06:53:31;4.90;99.90
14119;DHT22;7138;49.246;9.100;2023-12-20T06:55:58;4.90;99.90
14119;DHT22;7138;49.246;9.100;2023-12-20T06:58:24;4.90;99.90
14119;DHT22;7138;49.246;9.100;2023-12-20T07:00:50;4.90;99.90
14119;DHT22;7138;49.246;9.100;2023-12-20T07:03:17;4.90;99.90
14119;DHT22;7138;49.246;9.100;2023-12-20T07:05:43;4.90;99.90
14119;DHT22;7138;49.246;9.100;2023-12-20T07:08:09;4.90;99.90
14119;DHT22;7138;49.246;9.100;2023-12-20T07:10:36;4.90;99.90
14119;DHT22;7138;49.246;9.100;2023-12-20T07:13:03;4.80;99.90
14119;DHT22;7138;49.246;9.100;2023-12-20T07:15:29;4.80;99.90
14119;DHT22;7138;49.246;9.100;2023-12-20T07:17:55;4.90;99.90
14119;DHT22;7138;49.246;9.100;2023-12-20T07:20:21;4.90;99.90
14119;DHT22;7138;49.246;9.100;2023-12-20T07:22:47;4.80;99.90
14119;DHT22;7138;49.246;9.100;2023-12-20T07:25:12;4.80;99.90
14119;DHT22;7138;49.246;9.100;2023-12-20T07:27:38;4.80;99.90
14119;DHT22;7138;49.246;9.100;2023-12-20T07:30:07;4.70;99.90
14119;DHT22;7138;49.246;9.100;2023-12-20T07:32:33;4.70;99.90
14119;DHT22;7138;49.246;9.100;2023-12-20T07:34:59;4.70;99.90
14119;DHT22;7138;49.246;9.100;2023-12-20T07:37:25;4.70;99.90
14119;DHT22;7138;49.246;9.100;2023-12-20T07:39:51;4.60;99.90
14119;DHT22;7138;49.246;9.100;2023-12-20T07:42:17;4.60;99.90
14119;DHT22;7138;49.246;9.100;2023-12-20T07:44:42;4.60;99.90
14119;DHT22;7138;49.246;9.100;2023-12-20T07:47:09;4.60;99.90
14119;DHT22;7138;49.246;9.100;2023-12-20T07:49:37;4.60;99.90
14119;DHT22;7138;49.246;9.100;2023-12-20T07:52:03;4.60;99.90
14119;DHT22;7138;49.246;9.100;2023-12-20T07:54:30;4.60;99.90
14119;DHT22;7138;49.246;9.100;2023-12-20T07:56:56;4.50;99.90
14119;DHT22;7138;49.246;9.100;2023-12-20T07:59:22;4.50;99.90
14119;DHT22;7138;49.246;9.100;2023-12-20T08:01:48;4.50;99.90
14119;DHT22;7138;49.246;9.100;2023-12-20T08:04:15;4.50;99.90
14119;DHT22;7138;49.246;9.100;2023-12-20T08:06:41;4.40;99.90
14119;DHT22;7138;49.246;9.100;2023-12-20T08:09:07;4.40;99.90
14119;DHT22;7138;49.246;9.100;2023-12-20T08:11:32;4.50;99.90
14119;DHT22;7138;49.246;9.100;2023-12-20T08:13:58;4.50;99.90
14119;DHT22;7138;49.246;9.100;2023-12-20T08:16:24;4.60;99.90
14119;DHT22;7138;49.246;9.100;2023-12-20T08:18:50;4.70;99.90
14119;DHT22;7138;49.246;9.100;2023-12-20T08:21:17;4.90;99.90
14119;DHT22;7138;49.246;9.100;2023-12-20T08:23:45;5.10;99.90
14119;DHT22;7138;49.246;9.100;2023-12-20T08:26:11;5.10;99.90
14119;DHT22;7138;49.246;9.100;2023-12-20T08:28:37;5.00;99.90
14119;DHT22;7138;49.246;9.100;2023-12-20T08:31:03;4.90;99.90
14119;DHT22;7138;49.246;9.100;2023-12-20T08:33:29;4.90;99.90
14119;DHT22;7138;49.246;9.100;2023-12-20T08:35:55;4.80;99.90
14119;DHT22;7138;49.246;9.100;2023-12-20T08:38:22;4.90;99.90
14119;DHT22;7138;49.246;9.100;2023-12-20T08:40:48;5.00;99.90
14119;DHT22;7138;49.246;9.100;2023-12-20T08:43:14;5.10;99.90
14119;DHT22;7138;49.246;9.100;2023-12-20T08:45:40;5.30;99.90
14119;DHT22;7138;49.246;9.100;2023-12-20T08:48:06;5.40;99.90
14119;DHT22;7138;49.246;9.100;2023-12-20T08:50:32;5.40;99.90
14119;DHT22;7138;49.246;9.100;2023-12-20T08:52:58;5.40;99.90
14119;DHT22;7138;49.246;9.100;2023-12-20T08:55:25;5.50;99.90
14119;DHT22;7138;49.246;9.100;2023-12-20T08:57:52;5.50;99.90
14119;DHT22;7138;49.246;9.100;2023-12-20T09:00:19;5.50;99.90
14119;DHT22;7138;49.246;9.100;2023-12-20T09:02:46;5.50;99.90
14119;DHT22;7138;49.246;9.100;2023-12-20T09:05:12;5.60;99.90
14119;DHT22;7138;49.246;9.100;2023-12-20T09:07:37;5.70;99.90
14119;DHT22;7138;49.246;9.100;2023-12-20T09:10:04;5.70;99.90
14119;DHT22;7138;49.246;9.100;2023-12-20T09:12:31;5.70;99.90
14119;DHT22;7138;49.246;9.100;2023-12-20T09:14:57;6.00;99.90
14119;DHT22;7138;49.246;9.100;2023-12-20T09:17:23;6.00;99.90
14119;DHT22;7138;49.246;9.100;2023-12-20T09:19:49;6.20;99.90
14119;DHT22;7138;49.246;9.100;2023-12-20T09:22:15;6.20;99.90
14119;DHT22;7138;49.246;9.100;2023-12-20T09:24:40;6.40;99.90
14119;DHT22;7138;49.246;9.100;2023-12-20T09:27:06;6.50;99.90
14119;DHT22;7138;49.246;9.100;2023-12-20T09:29:33;6.40;99.90
14119;DHT22;7138;49.246;9.100;2023-12-20T09:31:59;6.20;99.90
14119;DHT22;7138;49.246;9.100;2023-12-20T09:34:25;6.00;99.90
14119;DHT22;7138;49.246;9.100;2023-12-20T09:36:52;5.80;99.90
14119;DHT22;7138;49.246;9.100;2023-12-20T09:39:19;5.70;99.90
14119;DHT22;7138;49.246;9.100;2023-12-20T09:41:59;5.70;99.90
14119;DHT22;7138;49.246;9.100;2023-12-20T09:44:27;5.60;99.90
14119;DHT22;7138;49.246;9.100;2023-12-20T09:46:55;5.70;99.90
14119;DHT22;7138;49.246;9.100;2023-12-20T09:49:22;5.60;99.90
14119;DHT22;7138;49.246;9.100;2023-12-20T09:51:50;5.50;99.90
14119;DHT22;7138;49.246;9.100;2023-12-20T09:54:17;5.60;99.90
14119;DHT22;7138;49.246;9.100;2023-12-20T09:56:44;5.90;99.90
14119;DHT22;7138;49.246;9.100;2023-12-20T09:59:10;5.90;99.90
14119;DHT22;7138;49.246;9.100;2023-12-20T10:01:37;6.00;99.90
14119;DHT22;7138;49.246;9.100;2023-12-20T10:04:07;5.90;99.90
14119;DHT22;7138;49.246;9.100;2023-12-20T10:06:35;5.80;99.90
14119;DHT22;7138;49.246;9.100;2023-12-20T10:09:01;5.70;99.90
14119;DHT22;7138;49.246;9.100;2023-12-20T10:11:28;5.70;99.90
14119;DHT22;7138;49.246;9.100;2023-12-20T10:13:59;5.60;99.90
14119;DHT22;7138;49.246;9.100;2023-12-20T10:16:28;5.60;99.90
14119;DHT22;7138;49.246;9.100;2023-12-20T10:18:54;5.60;99.90
14119;DHT22;7138;49.246;9.100;2023-12-20T10:21:22;5.60;99.90
14119;DHT22;7138;49.246;9.100;2023-12-20T10:23:48;5.60;99.90
14119;DHT22;7138;49.246;9.100;2023-12-20T10:26:20;5.50;99.90
14119;DHT22;7138;49.246;9.100;2023-12-20T10:28:50;5.50;99.90
14119;DHT22;7138;49.246;9.100;2023-12-20T10:31:26;5.70;99.90
14119;DHT22;7138;49.246;9.100;2023-12-20T10:33:55;5.80;99.90
14119;DHT22;7138;49.246;9.100;2023-12-20T10:36:25;5.80;99.90
14119;DHT22;7138;49.246;9.100;2023-12-20T10:38:53;5.90;99.90
14119;DHT22;7138;49.246;9.100;2023-12-20T10:41:24;6.10;99.90
14119;DHT22;7138;49.246;9.100;2023-12-20T10:43:51;6.00;99.90
14119;DHT22;7138;49.246;9.100;2023-12-20T10:46:18;6.00;99.90
14119;DHT22;7138;49.246;9.100;2023-12-20T10:48:45;6.00;99.90
14119;DHT22;7138;49.246;9.100;2023-12-20T10:51:14;5.90;99.90
14119;DHT22;7138;49.246;9.100;2023-12-20T10:53:45;5.90;99.90
14119;DHT22;7138;49.246;9.100;2023-12-20T10:56:15;5.80;99.90
14119;DHT22;7138;49.246;9.100;2023-12-20T10:58:44;5.80;99.90
14119;DHT22;7138;49.246;9.100;2023-12-20T11:01:12;5.90;99.90
14119;DHT22;7138;49.246;9.100;2023-12-20T11:03:44;5.80;99.90
14119;DHT22;7138;49.246;9.100;2023-12-20T11:06:20;5.80;99.90
14119;DHT22;7138;49.246;9.100;2023-12-20T11:09:02;6.00;99.90
14119;DHT22;7138;49.246;9.100;2023-12-20T11:11:48;6.30;99.90
14119;DHT22;7138;49.246;9.100;2023-12-20T11:14:25;6.40;99.90
14119;DHT22;7138;49.246;9.100;2023-12-20T11:17:07;6.30;99.90
14119;DHT22;7138;49.246;9.100;2023-12-20T11:19:36;6.10;99.90
14119;DHT22;7138;49.246;9.100;2023-12-20T11:22:04;6.10;99.90
14119;DHT22;7138;49.246;9.100;2023-12-20T11:24:32;6.20;99.90
14119;DHT22;7138;49.246;9.100;2023-12-20T11:26:59;6.40;99.90
14119;DHT22;7138;49.246;9.100;2023-12-20T11:29:30;6.50;99.90
14119;DHT22;7138;49.246;9.100;2023-12-20T11:31:57;6.30;99.90
14119;DHT22;7138;49.246;9.100;2023-12-20T11:34:27;6.20;99.90
14119;DHT22;7138;49.246;9.100;2023-12-20T11:36:57;6.40;99.90
14119;DHT22;7138;49.246;9.100;2023-12-20T11:39:25;6.30;99.90
14119;DHT22;7138;49.246;9.100;2023-12-20T11:41:55;6.10;99.90
14119;DHT22;7138;49.246;9.100;2023-12-20T11:44:22;6.20;99.90
14119;DHT22;7138;49.246;9.100;2023-12-20T11:46:50;6.20;99.90
14119;DHT22;7138;49.246;9.100;2023-12-20T11:49:16;6.10;99.90
14119;DHT22;7138;49.246;9.100;2023-12-20T11:51:42;6.00;99.90
14119;DHT22;7138;49.246;9.100;2023-12-20T11:54:09;5.90;99.90
14119;DHT22;7138;49.246;9.100;2023-12-20T11:56:36;5.80;99.90
14119;DHT22;7138;49.246;9.100;2023-12-20T11:59:03;5.70;99.90
14119;DHT22;7138;49.246;9.100;2023-12-20T12:01:29;5.80;99.90
14119;DHT22;7138;49.246;9.100;2023-12-20T12:04:02;5.90;99.90
14119;DHT22;7138;49.246;9.100;2023-12-20T12:06:28;5.90;99.90
14119;DHT22;7138;49.246;9.100;2023-12-20T12:08:54;5.90;99.90
14119;DHT22;7138;49.246;9.100;2023-12-20T12:11:21;6.00;99.90
14119;DHT22;7138;49.246;9.100;2023-12-20T12:13:47;5.90;99.90
14119;DHT22;7138;49.246;9.100;2023-12-20T12:16:17;5.80;99.90
14119;DHT22;7138;49.246;9.100;2023-12-20T12:18:43;5.90;99.90
14119;DHT22;7138;49.246;9.100;2023-12-20T12:21:09;5.90;99.90
14119;DHT22;7138;49.246;9.100;2023-12-20T12:23:35;5.80;99.90
14119;DHT22;7138;49.246;9.100;2023-12-20T12:26:03;5.70;99.90
14119;DHT22;7138;49.246;9.100;2023-12-20T12:28:29;5.70;99.90
14119;DHT22;7138;49.246;9.100;2023-12-20T12:30:57;5.80;99.90
14119;DHT22;7138;49.246;9.100;2023-12-20T12:33:25;5.90;99.90
14119;DHT22;7138;49.246;9.100;2023-12-20T12:35:51;5.90;99.90
14119;DHT22;7138;49.246;9.100;2023-12-20T12:38:20;5.90;99.90
14119;DHT22;7138;49.246;9.100;2023-12-20T12:40:46;5.90;99.90
14119;DHT22;7138;49.246;9.100;2023-12-20T12:43:12;6.00;99.90
14119;DHT22;7138;49.246;9.100;2023-12-20T12:45:38;5.90;99.90
14119;DHT22;7138;49.246;9.100;2023-12-20T12:48:05;6.00;99.90
14119;DHT22;7138;49.246;9.100;2023-12-20T12:50:33;5.90;99.90
14119;DHT22;7138;49.246;9.100;2023-12-20T12:52:59;5.80;99.90
14119;DHT22;7138;49.246;9.100;2023-12-20T12:55:25;5.70;99.90
14119;DHT22;7138;49.246;9.100;2023-12-20T12:57:51;5.60;99.90
14119;DHT22;7138;49.246;9.100;2023-12-20T13:00:17;5.60;99.90
14119;DHT22;7138;49.246;9.100;2023-12-20T13:02:44;5.60;99.90
14119;DHT22;7138;49.246;9.100;2023-12-20T13:05:10;5.60;99.90
14119;DHT22;7138;49.246;9.100;2023-12-20T13:07:37;5.50;99.90
14119;DHT22;7138;49.246;9.100;2023-12-20T13:10:06;5.40;99.90
14119;DHT22;7138;49.246;9.100;2023-12-20T13:12:32;5.40;99.90
14119;DHT22;7138;49.246;9.100;2023-12-20T13:14:57;5.40;99.90
14119;DHT22;7138;49.246;9.100;2023-12-20T13:17:23;5.30;99.90
14119;DHT22;7138;49.246;9.100;2023-12-20T13:19:49;5.30;99.90
14119;DHT22;7138;49.246;9.100;2023-12-20T13:22:15;5.30;99.90
14119;DHT22;7138;49.246;9.100;2023-12-20T13:24:42;5.30;99.90
14119;DHT22;7138;49.246;9.100;2023-12-20T13:27:10;5.30;99.90
14119;DHT22;7138;49.246;9.100;2023-12-20T13:29:36;5.20;99.90
14119;DHT22;7138;49.246;9.100;2023-12-20T13:32:02;5.20;99.90
14119;DHT22;7138;49.246;9.100;2023-12-20T13:34:29;5.20;99.90
14119;DHT22;7138;49.246;9.100;2023-12-20T13:36:55;5.20;99.90
14119;DHT22;7138;49.246;9.100;2023-12-20T13:39:22;5.20;99.90
14119;DHT22;7138;49.246;9.100;2023-12-20T13:41:49;5.20;99.90
14119;DHT22;7138;49.246;9.100;2023-12-20T13:44:15;5.20;99.90
14119;DHT22;7138;49.246;9.100;2023-12-20T13:46:41;5.20;99.90
14119;DHT22;7138;49.246;9.100;2023-12-20T13:49:07;5.20;99.90
14119;DHT22;7138;49.246;9.100;2023-12-20T13:51:33;5.20;99.90
14119;DHT22;7138;49.246;9.100;2023-12-20T13:53:59;5.20;99.90
14119;DHT22;7138;49.246;9.100;2023-12-20T13:56:25;5.20;99.90
14119;DHT22;7138;49.246;9.100;2023-12-20T13:58:52;5.10;99.90
14119;DHT22;7138;49.246;9.100;2023-12-20T14:01:18;5.10;99.90
14119;DHT22;7138;49.246;9.100;2023-12-20T14:03:44;5.00;99.90
14119;DHT22;7138;49.246;9.100;2023-12-20T14:06:10;5.00;99.90
14119;DHT22;7138;49.246;9.100;2023-12-20T14:08:35;5.00;99.90
14119;DHT22;7138;49.246;9.100;2023-12-20T14:11:01;5.00;99.90
14119;DHT22;7138;49.246;9.100;2023-12-20T14:13:27;5.00;99.90
14119;DHT22;7138;49.246;9.100;2023-12-20T14:15:54;5.00;99.90
14119;DHT22;7138;49.246;9.100;2023-12-20T14:18:20;5.00;99.90
14119;DHT22;7138;49.246;9.100;2023-12-20T14:20:46;4.90;99.90
14119;DHT22;7138;49.246;9.100;2023-12-20T14:23:13;4.90;99.90
14119;DHT22;7138;49.246;9.100;2023-12-20T14:25:42;4.90;99.90
14119;DHT22;7138;49.246;9.100;2023-12-20T14:28:08;4.80;99.90
14119;DHT22;7138;49.246;9.100;2023-12-20T14:30:35;4.80;99.90
14119;DHT22;7138;49.246;9.100;2023-12-20T14:33:04;4.90;99.90
14119;DHT22;7138;49.246;9.100;2023-12-20T14:35:30;4.80;99.90
14119;DHT22;7138;49.246;9.100;2023-12-20T14:37:55;4.80;99.90
14119;DHT22;7138;49.246;9.100;2023-12-20T14:40:22;4.90;99.90
14119;DHT22;7138;49.246;9.100;2023-12-20T14:42:47;4.80;99.90
14119;DHT22;7138;49.246;9.100;2023-12-20T14:45:14;4.90;99.90
14119;DHT22;7138;49.246;9.100;2023-12-20T14:47:41;4.80;99.90
14119;DHT22;7138;49.246;9.100;2023-12-20T14:50:09;4.80;99.90
14119;DHT22;7138;49.246;9.100;2023-12-20T14:52:37;4.80;99.90
14119;DHT22;7138;49.246;9.100;2023-12-20T14:55:03;4.90;99.90
14119;DHT22;7138;49.246;9.100;2023-12-20T14:57:30;4.90;99.90
14119;DHT22;7138;49.246;9.100;2023-12-20T14:59:55;4.80;99.90
14119;DHT22;7138;49.246;9.100;2023-12-20T15:02:21;4.90;99.90
14119;DHT22;7138;49.246;9.100;2023-12-20T15:04:47;4.90;99.90
14119;DHT22;7138;49.246;9.100;2023-12-20T15:07:16;4.90;99.90
14119;DHT22;7138;49.246;9.100;2023-12-20T15:09:42;4.90;99.90
14119;DHT22;7138;49.246;9.100;2023-12-20T15:12:11;4.90;99.90
14119;DHT22;7138;49.246;9.100;2023-12-20T15:14:37;4.80;99.90
14119;DHT22;7138;49.246;9.100;2023-12-20T15:17:03;4.80;99.90
14119;DHT22;7138;49.246;9.100;2023-12-20T15:19:30;4.80;99.90
14119;DHT22;7138;49.246;9.100;2023-12-20T15:21:56;4.70;99.90
14119;DHT22;7138;49.246;9.100;2023-12-20T15:24:25;4.70;99.90
14119;DHT22;7138;49.246;9.100;2023-12-20T15:27:04;4.70;99.90
14119;DHT22;7138;49.246;9.100;2023-12-20T15:29:30;4.70;99.90
14119;DHT22;7138;49.246;9.100;2023-12-20T15:31:56;4.60;99.90
14119;DHT22;7138;49.246;9.100;2023-12-20T15:34:22;4.50;99.90
14119;DHT22;7138;49.246;9.100;2023-12-20T15:36:48;4.50;99.90
14119;DHT22;7138;49.246;9.100;2023-12-20T15:39:14;4.50;99.90
14119;DHT22;7138;49.246;9.100;2023-12-20T15:41:41;4.50;99.90
14119;DHT22;7138;49.246;9.100;2023-12-20T15:44:07;4.50;99.90
14119;DHT22;7138;49.246;9.100;2023-12-20T15:46:33;4.50;99.90
14119;DHT22;7138;49.246;9.100;2023-12-20T15:48:59;4.40;99.90
14119;DHT22;7138;49.246;9.100;2023-12-20T15:51:25;4.40;99.90
14119;DHT22;7138;49.246;9.100;2023-12-20T15:53:51;4.50;99.90
14119;DHT22;7138;49.246;9.100;2023-12-20T15:56:17;4.50;99.90
14119;DHT22;7138;49.246;9.100;2023-12-20T15:58:44;4.50;99.90